createdAt,value
2022-10-01T00:02:16.438Z,9.07
2022-10-01T00:04:43.228Z,9.23
2022-10-01T00:07:15.185Z,8.52
2022-10-01T00:09:42.370Z,9.25
2022-10-01T00:12:09.031Z,9.85
2022-10-01T00:14:41.928Z,8.70
2022-10-01T00:17:08.582Z,9.43
2022-10-01T00:19:35.125Z,8.90
2022-10-01T00:22:02.201Z,9.70
2022-10-01T00:24:28.983Z,8.85
2022-10-01T00:26:55.615Z,9.68
2022-10-01T00:29:22.664Z,9.23
2022-10-01T00:31:49.568Z,9.20
2022-10-01T00:34:16.248Z,9.43
2022-10-01T00:36:43.015Z,9.48
2022-10-01T00:39:12.011Z,9.60
2022-10-01T00:41:39.102Z,10.70
2022-10-01T00:44:35.822Z,9.50
2022-10-01T00:47:25.168Z,10.00
2022-10-01T00:49:59.341Z,11.30
2022-10-01T00:52:30.771Z,16.85
2022-10-01T00:55:20.978Z,9.77
2022-10-01T00:57:49.789Z,9.52
2022-10-01T01:00:18.330Z,9.43
2022-10-01T01:02:45.364Z,9.80
2022-10-01T01:05:13.796Z,9.88
2022-10-01T01:07:47.470Z,9.02
2022-10-01T01:10:17.203Z,9.90
2022-10-01T01:13:01.969Z,10.00
2022-10-01T01:15:47.123Z,9.48
2022-10-01T01:18:31.358Z,12.05
2022-10-01T01:21:08.273Z,10.40
2022-10-01T01:23:53.854Z,10.10
2022-10-01T01:26:32.317Z,9.73
2022-10-01T01:29:06.720Z,9.57
2022-10-01T01:31:40.439Z,9.85
2022-10-01T01:34:12.410Z,10.43
2022-10-01T01:36:45.284Z,10.48
2022-10-01T01:39:15.273Z,10.25
2022-10-01T01:41:50.228Z,10.27
2022-10-01T01:44:22.975Z,10.32
2022-10-01T01:46:52.648Z,10.30
2022-10-01T01:49:21.012Z,10.80
2022-10-01T01:52:14.378Z,10.55
2022-10-01T01:54:41.591Z,11.18
2022-10-01T01:57:09.029Z,10.70
2022-10-01T01:59:36.634Z,11.35
2022-10-01T02:02:06.849Z,11.43
2022-10-01T02:04:46.210Z,11.63
2022-10-01T02:07:30.968Z,10.93
2022-10-01T02:10:10.396Z,11.95
2022-10-01T02:13:01.997Z,10.90
2022-10-01T02:15:37.366Z,12.85
2022-10-01T02:18:12.974Z,12.38
2022-10-01T02:20:46.150Z,11.77
2022-10-01T02:23:17.953Z,12.40
2022-10-01T02:25:51.024Z,12.55
2022-10-01T02:28:22.988Z,11.52
2022-10-01T02:30:53.439Z,11.85
2022-10-01T02:33:32.276Z,11.25
2022-10-01T02:36:01.284Z,11.50
2022-10-01T02:38:29.589Z,12.13
2022-10-01T02:41:01.049Z,11.45
2022-10-01T02:43:37.339Z,11.93
2022-10-01T02:46:15.876Z,12.38
2022-10-01T02:48:43.141Z,14.48
2022-10-01T02:51:26.004Z,12.55
2022-10-01T02:53:59.587Z,11.95
2022-10-01T02:56:49.077Z,11.80
2022-10-01T02:59:16.010Z,11.98
2022-10-01T03:01:42.828Z,12.60
2022-10-01T03:04:09.580Z,12.35
2022-10-01T03:06:36.310Z,12.37
2022-10-01T03:09:03.100Z,12.50
2022-10-01T03:11:29.854Z,12.63
2022-10-01T03:13:57.013Z,12.63
2022-10-01T03:16:24.829Z,14.18
2022-10-01T03:18:51.578Z,12.43
2022-10-01T03:21:18.166Z,12.60
2022-10-01T03:23:45.557Z,12.82
2022-10-01T03:26:12.334Z,12.10
2022-10-01T03:28:38.952Z,13.27
2022-10-01T03:31:10.455Z,12.40
2022-10-01T03:33:37.480Z,12.60
2022-10-01T03:36:05.110Z,11.85
2022-10-01T03:38:32.289Z,12.20
2022-10-01T03:41:01.363Z,13.38
2022-10-01T03:43:29.117Z,12.20
2022-10-01T03:45:56.769Z,12.43
2022-10-01T03:48:24.609Z,12.20
2022-10-01T03:50:56.131Z,12.02
2022-10-01T03:53:22.975Z,11.35
2022-10-01T03:55:50.393Z,11.95
2022-10-01T03:58:19.212Z,12.45
2022-10-01T04:00:47.578Z,12.32
2022-10-01T04:03:15.524Z,12.30
2022-10-01T04:05:43.712Z,11.82
2022-10-01T04:08:10.607Z,12.50
2022-10-01T04:10:37.640Z,11.45
2022-10-01T04:13:05.595Z,13.07
2022-10-01T04:15:32.932Z,11.85
2022-10-01T04:18:00.151Z,12.80
2022-10-01T04:20:26.716Z,11.82
2022-10-01T04:22:53.369Z,11.82
2022-10-01T04:25:20.038Z,13.85
2022-10-01T04:28:07.229Z,12.02
2022-10-01T04:30:39.772Z,12.55
2022-10-01T04:33:07.430Z,12.85
2022-10-01T04:35:34.092Z,11.75
2022-10-01T04:38:03.526Z,12.20
2022-10-01T04:40:31.744Z,11.77
2022-10-01T04:42:58.353Z,12.27
2022-10-01T04:45:25.043Z,12.32
2022-10-01T04:47:54.257Z,12.20
2022-10-01T04:50:22.059Z,12.98
2022-10-01T04:52:48.965Z,12.52
2022-10-01T04:55:17.154Z,12.15
2022-10-01T04:57:44.121Z,12.45
2022-10-01T05:00:17.108Z,12.07
2022-10-01T05:02:45.516Z,11.77
2022-10-01T05:05:12.060Z,12.18
2022-10-01T05:07:39.758Z,12.68
2022-10-01T05:10:08.297Z,12.10
2022-10-01T05:12:35.027Z,12.20
2022-10-01T05:15:03.063Z,12.55
2022-10-01T05:17:32.985Z,12.82
2022-10-01T05:19:59.478Z,11.93
2022-10-01T05:22:26.136Z,12.48
2022-10-01T05:24:52.721Z,13.02
2022-10-01T05:27:19.610Z,13.25
2022-10-01T05:29:49.155Z,12.68
2022-10-01T05:32:15.759Z,12.85
2022-10-01T05:34:42.295Z,12.70
2022-10-01T05:37:09.439Z,13.35
2022-10-01T05:39:35.881Z,12.88
2022-10-01T05:42:06.515Z,12.60
2022-10-01T05:44:37.791Z,13.02
2022-10-01T05:47:07.858Z,12.77
2022-10-01T05:49:34.539Z,12.68
2022-10-01T05:52:01.397Z,12.32
2022-10-01T05:54:30.922Z,13.02
2022-10-01T05:56:57.484Z,13.35
2022-10-01T05:59:28.483Z,12.60
2022-10-01T06:01:58.079Z,12.85
2022-10-01T06:04:24.714Z,13.05
2022-10-01T06:06:51.373Z,12.93
2022-10-01T06:09:18.111Z,13.75
2022-10-01T06:11:45.336Z,15.82
2022-10-01T06:14:12.412Z,13.63
2022-10-01T06:16:38.959Z,12.90
2022-10-01T06:19:05.607Z,13.40
2022-10-01T06:21:32.609Z,12.30
2022-10-01T06:23:59.319Z,11.38
2022-10-01T06:26:26.034Z,14.75
2022-10-01T06:28:52.831Z,12.75
2022-10-01T06:31:21.115Z,11.85
2022-10-01T06:33:47.767Z,12.43
2022-10-01T06:36:14.215Z,12.23
2022-10-01T06:38:40.639Z,11.52
2022-10-01T06:41:07.106Z,12.55
2022-10-01T06:43:33.907Z,13.07
2022-10-01T06:46:05.094Z,15.30
2022-10-01T06:48:32.425Z,11.98
2022-10-01T06:50:59.793Z,11.30
2022-10-01T06:53:28.492Z,11.05
2022-10-01T06:55:55.714Z,11.68
2022-10-01T06:58:26.367Z,11.30
2022-10-01T07:00:58.636Z,13.30
2022-10-01T07:03:25.903Z,11.82
2022-10-01T07:05:52.775Z,10.95
2022-10-01T07:08:19.663Z,11.27
2022-10-01T07:10:46.259Z,11.02
2022-10-01T07:13:18.029Z,10.60
2022-10-01T07:15:45.681Z,10.65
2022-10-01T07:18:13.507Z,10.95
2022-10-01T07:20:41.419Z,11.02
2022-10-01T07:23:11.913Z,10.35
2022-10-01T07:25:40.113Z,10.82
2022-10-01T07:28:16.089Z,10.98
2022-10-01T07:30:48.029Z,11.18
2022-10-01T07:33:18.730Z,10.90
2022-10-01T07:35:47.756Z,10.82
2022-10-01T07:38:14.346Z,10.38
2022-10-01T07:40:41.606Z,10.18
2022-10-01T07:43:08.561Z,10.77
2022-10-01T07:45:35.277Z,10.60
2022-10-01T07:48:02.933Z,10.90
2022-10-01T07:50:33.245Z,9.98
2022-10-01T07:53:00.127Z,11.27
2022-10-01T07:55:30.646Z,12.02
2022-10-01T07:58:01.515Z,10.35
2022-10-01T08:02:56.278Z,10.27
2022-10-01T08:05:32.894Z,10.70
2022-10-01T08:08:04.088Z,10.57
2022-10-01T08:10:31.201Z,10.65
2022-10-01T08:13:05.479Z,10.70
2022-10-01T08:15:32.194Z,11.63
2022-10-01T08:18:02.212Z,11.82
2022-10-01T08:20:29.770Z,11.90
2022-10-01T08:23:07.864Z,10.70
2022-10-01T08:25:35.379Z,10.93
2022-10-01T08:28:02.377Z,11.65
2022-10-01T08:30:30.568Z,11.40
2022-10-01T08:32:58.853Z,11.20
2022-10-01T08:35:30.837Z,12.55
2022-10-01T08:38:07.037Z,11.73
2022-10-01T08:40:40.861Z,11.38
2022-10-01T08:43:22.592Z,10.80
2022-10-01T08:45:55.572Z,10.93
2022-10-01T08:48:45.476Z,11.52
2022-10-01T08:51:40.113Z,11.40
2022-10-01T08:54:29.108Z,11.07
2022-10-01T08:56:59.920Z,10.23
2022-10-01T08:59:47.357Z,10.82
2022-10-01T09:02:28.325Z,9.82
2022-10-01T09:05:07.004Z,10.20
2022-10-01T09:07:49.730Z,9.02
2022-10-01T09:10:48.448Z,9.93
2022-10-01T09:13:27.418Z,8.98
2022-10-01T09:16:01.731Z,9.70
2022-10-01T09:18:54.765Z,9.45
2022-10-01T09:21:55.688Z,9.63
2022-10-01T09:24:45.268Z,8.68
2022-10-01T09:27:16.136Z,8.77
2022-10-01T09:29:56.670Z,9.45
2022-10-01T09:32:27.199Z,8.48
2022-10-01T09:34:55.776Z,8.55
2022-10-01T09:37:29.210Z,8.57
2022-10-01T09:40:15.802Z,8.60
2022-10-01T09:42:45.854Z,8.80
2022-10-01T09:45:15.244Z,8.85
2022-10-01T09:47:46.432Z,7.95
2022-10-01T09:50:25.333Z,7.63
2022-10-01T09:53:05.305Z,10.20
2022-10-01T09:55:43.388Z,8.18
2022-10-01T09:58:21.594Z,8.27
2022-10-01T10:00:51.637Z,7.97
2022-10-01T10:03:28.834Z,8.23
2022-10-01T10:05:56.184Z,8.43
2022-10-01T10:08:29.051Z,8.15
2022-10-01T10:11:01.752Z,8.35
2022-10-01T10:13:41.424Z,8.85
2022-10-01T10:16:26.611Z,8.85
2022-10-01T10:19:16.769Z,8.02
2022-10-01T10:21:52.987Z,8.75
2022-10-01T10:24:32.673Z,7.90
2022-10-01T10:27:07.050Z,7.05
2022-10-01T10:29:35.923Z,6.72
2022-10-01T10:32:24.735Z,7.43
2022-10-01T10:34:58.877Z,7.47
2022-10-01T10:39:58.293Z,6.25
2022-10-01T10:42:26.013Z,6.30
2022-10-01T10:44:55.901Z,6.43
2022-10-01T10:47:24.407Z,5.85
2022-10-01T10:50:00.766Z,5.88
2022-10-01T10:52:30.524Z,5.85
2022-10-01T10:54:59.437Z,6.00
2022-10-01T10:57:34.425Z,5.63
2022-10-01T11:00:05.215Z,6.15
2022-10-01T11:02:33.195Z,5.45
2022-10-01T11:05:17.420Z,6.28
2022-10-01T11:07:46.895Z,5.47
2022-10-01T11:10:37.165Z,4.72
2022-10-01T11:13:09.676Z,4.78
2022-10-01T11:15:36.585Z,4.55
2022-10-01T11:18:40.441Z,4.82
2022-10-01T11:21:23.519Z,4.22
2022-10-01T11:24:11.738Z,4.40
2022-10-01T11:27:11.338Z,4.25
2022-10-01T11:29:58.615Z,4.55
2022-10-01T11:32:46.089Z,3.92
2022-10-01T11:35:15.711Z,3.60
2022-10-01T11:37:50.758Z,3.35
2022-10-01T11:40:36.776Z,3.00
2022-10-01T11:43:21.347Z,2.88
2022-10-01T11:45:54.511Z,3.00
2022-10-01T11:48:41.561Z,5.60
2022-10-01T11:51:18.093Z,2.70
2022-10-01T11:53:53.719Z,2.50
2022-10-01T11:56:50.185Z,2.70
2022-10-01T11:59:50.120Z,2.90
2022-10-01T12:02:31.793Z,3.00
2022-10-01T12:05:10.375Z,3.30
2022-10-01T12:08:07.177Z,3.00
2022-10-01T12:11:06.725Z,3.15
2022-10-01T12:13:42.281Z,3.00
2022-10-01T12:16:19.967Z,3.15
2022-10-01T12:19:31.869Z,2.95
2022-10-01T12:22:33.889Z,3.00
2022-10-01T12:25:00.549Z,2.53
2022-10-01T12:27:55.342Z,3.35
2022-10-01T12:30:25.901Z,2.67
2022-10-01T12:32:55.282Z,2.40
2022-10-01T12:35:41.224Z,2.60
2022-10-01T12:38:35.749Z,2.22
2022-10-01T12:41:45.715Z,2.22
2022-10-01T12:44:50.391Z,2.85
2022-10-01T12:47:30.046Z,2.35
2022-10-01T12:50:09.882Z,2.30
2022-10-01T12:52:45.384Z,2.20
2022-10-01T12:55:49.737Z,2.20
2022-10-01T12:58:56.401Z,2.15
2022-10-01T13:01:36.350Z,2.10
2022-10-01T13:04:29.133Z,1.92
2022-10-01T13:07:08.093Z,2.00
2022-10-01T13:10:06.619Z,1.85
2022-10-01T13:13:06.505Z,2.00
2022-10-01T13:15:42.206Z,6.65
2022-10-01T13:18:12.072Z,1.75
2022-10-01T13:20:57.686Z,1.70
2022-10-01T13:24:11.923Z,1.70
2022-10-01T13:27:04.458Z,1.65
2022-10-01T13:29:43.550Z,2.35
2022-10-01T13:32:30.587Z,1.48
2022-10-01T13:34:59.644Z,2.00
2022-10-01T13:37:36.781Z,1.70
2022-10-01T13:40:04.462Z,1.73
2022-10-01T13:42:45.669Z,2.00
2022-10-01T13:45:38.890Z,1.33
2022-10-01T13:48:12.624Z,1.25
2022-10-01T13:50:42.409Z,1.70
2022-10-01T13:53:22.438Z,2.25
2022-10-01T13:55:50.784Z,2.42
2022-10-01T13:58:26.238Z,1.70
2022-10-01T14:01:00.804Z,1.20
2022-10-01T14:03:58.773Z,1.10
2022-10-01T14:06:39.901Z,1.17
2022-10-01T14:09:15.479Z,1.20
2022-10-01T14:12:26.511Z,1.80
2022-10-01T14:15:15.916Z,1.58
2022-10-01T14:17:45.027Z,1.00
2022-10-01T14:20:24.785Z,1.10
2022-10-01T14:23:12.747Z,1.55
2022-10-01T14:26:07.831Z,2.28
2022-10-01T14:28:44.630Z,1.10
2022-10-01T14:31:39.636Z,1.15
2022-10-01T14:34:28.182Z,1.25
2022-10-01T14:36:56.714Z,1.30
2022-10-01T14:39:29.528Z,1.40
2022-10-01T14:41:58.471Z,1.38
2022-10-01T14:44:37.718Z,1.30
2022-10-01T14:47:22.792Z,1.20
2022-10-01T14:49:51.921Z,1.35
2022-10-01T14:52:21.245Z,1.27
2022-10-01T14:55:02.264Z,1.60
2022-10-01T14:57:41.976Z,1.30
2022-10-01T15:00:15.956Z,1.20
2022-10-01T15:02:48.012Z,1.52
2022-10-01T15:05:29.700Z,1.42
2022-10-01T15:07:56.790Z,1.25
2022-10-01T15:10:28.197Z,1.50
2022-10-01T15:12:55.760Z,1.60
2022-10-01T15:15:33.819Z,1.50
2022-10-01T15:18:07.665Z,1.60
2022-10-01T15:20:38.299Z,1.70
2022-10-01T15:23:06.138Z,2.30
2022-10-01T15:25:33.898Z,4.50
2022-10-01T15:28:01.034Z,2.00
2022-10-01T15:30:28.689Z,1.58
2022-10-01T15:32:57.088Z,1.67
2022-10-01T15:35:25.458Z,2.88
2022-10-01T15:37:53.946Z,1.60
2022-10-01T15:40:29.893Z,1.67
2022-10-01T15:43:12.079Z,1.70
2022-10-01T15:45:39.018Z,1.65
2022-10-01T15:48:19.455Z,1.80
2022-10-01T15:51:00.277Z,1.60
2022-10-01T15:53:28.738Z,1.80
2022-10-01T15:55:58.076Z,1.88
2022-10-01T15:58:35.345Z,1.70
2022-10-01T16:03:52.689Z,1.67
2022-10-01T16:06:35.342Z,1.77
2022-10-01T16:09:25.583Z,1.52
2022-10-01T16:11:54.826Z,1.75
2022-10-01T16:14:43.588Z,1.85
2022-10-01T16:17:19.763Z,2.35
2022-10-01T16:19:49.308Z,2.20
2022-10-01T16:22:38.030Z,2.30
2022-10-01T16:25:23.175Z,2.40
2022-10-01T16:28:05.639Z,2.67
2022-10-01T16:30:38.870Z,3.30
2022-10-01T16:33:06.150Z,2.45
2022-10-01T16:35:35.940Z,2.50
2022-10-01T16:38:06.808Z,1.92
2022-10-01T16:43:09.930Z,2.00
2022-10-01T16:45:42.831Z,1.90
2022-10-01T16:48:22.551Z,1.90
2022-10-01T16:50:49.352Z,1.60
2022-10-01T16:53:18.561Z,1.65
2022-10-01T16:55:46.185Z,1.70
2022-10-01T16:58:13.692Z,1.83
2022-10-01T17:00:40.911Z,1.88
2022-10-01T17:03:15.571Z,1.77
2022-10-01T17:05:42.417Z,1.98
2022-10-01T17:08:12.903Z,2.42
2022-10-01T17:10:45.864Z,1.70
2022-10-01T17:13:13.453Z,1.75
2022-10-01T17:15:41.170Z,2.10
2022-10-01T17:18:09.883Z,2.42
2022-10-01T17:20:38.343Z,2.10
2022-10-01T17:23:10.082Z,1.75
2022-10-01T17:25:38.398Z,1.95
2022-10-01T17:28:08.648Z,3.75
2022-10-01T17:30:35.387Z,2.05
2022-10-01T17:33:02.058Z,1.95
2022-10-01T17:35:31.099Z,1.70
2022-10-01T17:37:58.577Z,1.50
2022-10-01T17:40:25.526Z,1.60
2022-10-01T17:42:52.310Z,1.95
2022-10-01T17:45:19.211Z,9.70
2022-10-01T17:47:47.948Z,2.03
2022-10-01T17:50:15.646Z,2.00
2022-10-01T17:55:23.929Z,1.80
2022-10-01T17:57:51.022Z,2.10
2022-10-01T18:00:18.340Z,1.80
2022-10-01T18:02:45.451Z,1.40
2022-10-01T18:05:14.908Z,1.30
2022-10-01T18:07:42.904Z,2.03
2022-10-01T18:10:12.789Z,1.65
2022-10-01T18:12:40.304Z,1.80
2022-10-01T18:15:07.578Z,5.05
2022-10-01T18:17:36.681Z,3.22
2022-10-01T18:20:08.208Z,3.13
2022-10-01T18:22:36.395Z,1.92
2022-10-01T18:25:07.050Z,2.40
2022-10-01T18:27:33.774Z,1.75
2022-10-01T18:30:00.445Z,7.45
2022-10-01T18:32:37.728Z,6.35
2022-10-01T18:37:52.078Z,4.20
2022-10-01T18:40:30.655Z,2.95
2022-10-01T18:43:13.376Z,1.70
2022-10-01T18:46:07.767Z,2.47
2022-10-01T18:48:48.298Z,2.53
2022-10-01T18:51:30.731Z,9.00
2022-10-01T18:54:15.119Z,1.60
2022-10-01T18:56:51.941Z,1.40
2022-10-01T18:59:52.670Z,2.15
2022-10-01T19:02:41.350Z,1.20
2022-10-01T19:05:10.390Z,1.60
2022-10-01T19:08:17.591Z,1.35
2022-10-01T19:11:02.992Z,1.65
2022-10-01T19:13:53.806Z,1.35
2022-10-01T19:16:42.195Z,1.35
2022-10-01T19:19:22.309Z,1.40
2022-10-01T19:22:14.735Z,1.50
2022-10-01T19:24:47.795Z,1.80
2022-10-01T19:27:36.114Z,2.42
2022-10-01T19:30:15.697Z,1.42
2022-10-01T19:33:07.558Z,1.92
2022-10-01T19:35:44.180Z,1.95
2022-10-01T19:38:18.634Z,1.60
2022-10-01T19:40:59.263Z,1.55
2022-10-01T19:43:57.610Z,2.05
2022-10-01T19:46:32.163Z,1.30
2022-10-01T19:49:14.078Z,1.60
2022-10-01T19:52:00.179Z,4.75
2022-10-01T19:54:35.040Z,3.25
2022-10-01T19:57:28.416Z,1.88
2022-10-01T20:00:08.989Z,1.83
2022-10-01T20:02:42.715Z,2.00
2022-10-01T20:05:28.605Z,2.10
2022-10-01T20:08:16.546Z,2.60
2022-10-01T20:11:05.085Z,1.92
2022-10-01T20:14:00.876Z,1.80
2022-10-01T20:16:38.373Z,1.77
2022-10-01T20:19:24.827Z,2.08
2022-10-01T20:22:06.293Z,2.03
2022-10-01T20:24:51.656Z,1.90
2022-10-01T20:27:33.380Z,1.92
2022-10-01T20:30:14.782Z,2.17
2022-10-01T20:32:59.910Z,2.20
2022-10-01T20:35:29.967Z,1.58
2022-10-01T20:38:22.466Z,1.90
2022-10-01T20:40:54.794Z,2.33
2022-10-01T20:43:31.723Z,2.00
2022-10-01T20:46:06.401Z,2.70
2022-10-01T20:48:39.493Z,2.75
2022-10-01T20:51:12.485Z,2.33
2022-10-01T20:53:49.085Z,2.20
2022-10-01T20:56:18.587Z,2.28
2022-10-01T20:59:11.850Z,2.25
2022-10-01T21:01:48.529Z,2.50
2022-10-01T21:04:23.801Z,2.67
2022-10-01T21:07:01.333Z,4.25
2022-10-01T21:09:40.981Z,1.95
2022-10-01T21:12:19.080Z,1.90
2022-10-01T21:14:55.585Z,2.20
2022-10-01T21:17:43.518Z,2.53
2022-10-01T21:20:26.418Z,1.58
2022-10-01T21:23:10.936Z,2.90
2022-10-01T21:25:58.575Z,1.83
2022-10-01T21:28:56.340Z,1.60
2022-10-01T21:31:47.592Z,1.40
2022-10-01T21:34:25.300Z,1.80
2022-10-01T21:37:01.600Z,2.00
2022-10-01T21:39:36.990Z,4.22
2022-10-01T21:42:15.205Z,2.33
2022-10-01T21:44:48.320Z,2.38
2022-10-01T21:47:39.094Z,2.17
2022-10-01T21:50:21.315Z,2.10
2022-10-01T21:53:16.738Z,3.88
2022-10-01T21:56:00.880Z,2.50
2022-10-01T21:58:55.666Z,1.90
2022-10-01T22:01:34.082Z,3.55
2022-10-01T22:04:18.108Z,3.75
2022-10-01T22:06:58.469Z,2.88
2022-10-01T22:09:31.433Z,4.43
2022-10-01T22:12:02.209Z,5.15
2022-10-01T22:16:59.101Z,3.33
2022-10-01T22:19:38.949Z,2.78
2022-10-01T22:22:13.186Z,3.35
2022-10-01T22:24:49.662Z,3.40
2022-10-01T22:27:33.208Z,2.90
2022-10-01T22:30:08.877Z,2.75
2022-10-01T22:32:44.285Z,3.00
2022-10-01T22:35:34.006Z,3.50
2022-10-01T22:38:12.933Z,3.00
2022-10-01T22:40:44.407Z,2.42
2022-10-01T22:43:15.910Z,9.80
2022-10-01T22:45:48.756Z,4.82
2022-10-01T22:48:21.423Z,3.92
2022-10-01T22:51:12.186Z,3.40
2022-10-01T22:53:59.535Z,2.88
2022-10-01T22:56:41.583Z,3.03
2022-10-01T22:59:49.058Z,3.35
2022-10-01T23:02:32.572Z,2.60
2022-10-01T23:05:41.174Z,2.97
2022-10-01T23:08:28.611Z,3.28
2022-10-01T23:11:40.232Z,8.68
2022-10-01T23:14:20.020Z,4.30
2022-10-01T23:17:06.256Z,4.32
2022-10-01T23:19:50.399Z,3.65
2022-10-01T23:22:41.634Z,3.38
2022-10-01T23:25:29.950Z,4.38
2022-10-01T23:28:25.566Z,7.15
2022-10-01T23:31:07.053Z,4.15
2022-10-01T23:33:57.383Z,3.55
2022-10-01T23:36:56.819Z,3.90
2022-10-01T23:39:28.424Z,4.60
2022-10-01T23:42:15.271Z,9.10
2022-10-01T23:45:11.018Z,5.40
2022-10-01T23:48:05.500Z,5.43
2022-10-01T23:50:38.035Z,3.38
2022-10-01T23:53:14.573Z,5.85
2022-10-01T23:56:09.586Z,5.30
2022-10-01T23:58:45.270Z,4.78
